Airport View

Enter AWOS ICAO identifier for current METAR.

ex. KFNL

KCLS 191935Z AUTO 30011G17KT 270V330 10SM SCT042 BKN050 OVC060 17/08 A3024 RMK AO2

19 Jun 2019 19:43

Frequency: 118.025

Phone: 360-740-5164

Other Area AWOS: KOLM - KGRF - KKLS - KSHN

TAF KOLM 191722Z 1918/2018 26010G16KT P6SM FEW040 SCT050 FM200400 22008KT P6SM BKN050 FM201200 21005KT P6SM BKN015 OVC050